PWSweather.com
Personal Weather Stations
Station Observations
JOE4SPEED
Jupiter, Fl, Jupiter, FL 33458

Jupiter, FlJupiter, FL 33458

Lat: 26.9373, Lon: -80.1101

Elevation: 12

Station Type: Davis VP 2

http://www.joe4speed.com/wxindex.php

Latest ConditionsUpdated 8:30:01 PM EDT Sunday, Mar 26, 2017
Currently Today's Max Today's Min Today's Average
Temperature 72.5°F22.5°C 81.1°F27.3°C 71.7°F22.1°C 75.3°F24.1°C
Dew Point 62.2°F16.8°C 66.0°F18.9°C 61.7°F16.5°C 64.2°F17.9°C
Winds 6.9 mph E11.1 kmh E 10.4 mph E16.7 kmh E - 6.1 mph 9.8 kmh
Wind Gusts 9.2 mph14.8 kmh 15.0 mph24.1 kmh - -
Humidity 70% 77% 59% 69%
Pressure 30.10 in1019.3 mb 30.14 in1020.7 mb 30.07 in1018.3 mb -
Hour Temp Dew Point Humidity Winds Wind Gusts Pressure Precip Precip Rate Daily Precip Total
08:30 PM 72.5°F22.5°C 62.2°F16.8°C 70% 6.9 mph E11.1 kmh E 9.2 mph14.8 kmh 30.10 in1019.3 mb - 0.00 in0.0 mm 0.00 in0.0 mm
08:20 PM 72.4°F22.4°C 61.7°F16.5°C 69% 4.6 mph ENE7.4 kmh ENE 5.8 mph9.3 kmh 30.09 in1019.0 mb - 0.00 in0.0 mm 0.00 in0.0 mm
08:10 PM 72.5°F22.5°C 61.7°F16.5°C 69% 5.8 mph E9.3 kmh E 9.2 mph14.8 kmh 30.09 in1019.0 mb - 0.00 in0.0 mm 0.00 in0.0 mm
08:00 PM 72.8°F22.7°C 62.0°F16.7°C 69% 4.6 mph E7.4 kmh E 6.9 mph11.1 kmh 30.09 in1019.0 mb - 0.00 in0.0 mm 0.00 in0.0 mm
07:50 PM 72.9°F22.7°C 62.1°F16.7°C 69% 5.8 mph E9.3 kmh E 8.1 mph13.0 kmh 30.09 in1019.0 mb - 0.00 in0.0 mm 0.00 in0.0 mm
07:40 PM 73.1°F22.8°C 61.9°F16.6°C 68% 5.8 mph E9.3 kmh E 8.1 mph13.0 kmh 30.08 in1018.6 mb - 0.00 in0.0 mm 0.00 in0.0 mm
07:30 PM 73.5°F23.1°C 62.3°F16.8°C 68% 2.3 mph E3.7 kmh E 12.7 mph20.4 kmh 30.08 in1018.6 mb - 0.00 in0.0 mm 0.00 in0.0 mm
07:20 PM 74.1°F23.4°C 62.4°F16.9°C 67% 5.8 mph E9.3 kmh E 6.9 mph11.1 kmh 30.08 in1018.6 mb - 0.00 in0.0 mm 0.00 in0.0 mm
07:10 PM 74.8°F23.8°C 63.1°F17.3°C 67% 5.8 mph E9.3 kmh E 9.2 mph14.8 kmh 30.08 in1018.6 mb - 0.00 in0.0 mm 0.00 in0.0 mm
07:00 PM 75.4°F24.1°C 62.8°F17.1°C 65% 3.5 mph E5.6 kmh E 4.6 mph7.4 kmh 30.07 in1018.3 mb - 0.00 in0.0 mm 0.00 in0.0 mm
06:50 PM 76.5°F24.7°C 63.4°F17.4°C 64% 6.9 mph E11.1 kmh E 13.8 mph22.2 kmh 30.07 in1018.3 mb - 0.00 in0.0 mm 0.00 in0.0 mm
06:40 PM 76.5°F24.7°C 63.4°F17.4°C 64% 4.6 mph E7.4 kmh E 6.9 mph11.1 kmh 30.07 in1018.3 mb - 0.00 in0.0 mm 0.00 in0.0 mm
06:30 PM 76.5°F24.7°C 63.0°F17.2°C 63% 5.8 mph E9.3 kmh E 6.9 mph11.1 kmh 30.08 in1018.6 mb - 0.00 in0.0 mm 0.00 in0.0 mm
06:20 PM 76.8°F24.9°C 63.2°F17.3°C 63% 8.1 mph E13.0 kmh E 12.7 mph20.4 kmh 30.07 in1018.3 mb - 0.00 in0.0 mm 0.00 in0.0 mm
06:10 PM 77.7°F25.4°C 63.6°F17.6°C 62% 8.1 mph E13.0 kmh E 12.7 mph20.4 kmh 30.08 in1018.6 mb - 0.00 in0.0 mm 0.00 in0.0 mm
06:00 PM 78.3°F25.7°C 64.7°F18.2°C 63% 3.5 mph E5.6 kmh E 5.8 mph9.3 kmh 30.07 in1018.3 mb - 0.00 in0.0 mm 0.00 in0.0 mm
05:50 PM 77.9°F25.5°C 64.3°F17.9°C 63% 3.5 mph E5.6 kmh E 6.9 mph11.1 kmh 30.07 in1018.3 mb - 0.00 in0.0 mm 0.00 in0.0 mm
05:40 PM 78.2°F25.7°C 64.2°F17.9°C 62% 4.6 mph E7.4 kmh E 9.2 mph14.8 kmh 30.07 in1018.3 mb - 0.00 in0.0 mm 0.00 in0.0 mm
05:30 PM 78.5°F25.8°C 64.4°F18.0°C 62% 5.8 mph E9.3 kmh E 12.7 mph20.4 kmh 30.08 in1018.6 mb - 0.00 in0.0 mm 0.00 in0.0 mm
05:20 PM 77.6°F25.3°C 63.6°F17.6°C 62% 4.6 mph ENE7.4 kmh ENE 9.2 mph14.8 kmh 30.08 in1018.6 mb - 0.00 in0.0 mm 0.00 in0.0 mm
05:10 PM 77.8°F25.4°C 63.7°F17.6°C 62% 5.8 mph E9.3 kmh E 6.9 mph11.1 kmh 30.07 in1018.3 mb - 0.00 in0.0 mm 0.00 in0.0 mm
05:00 PM 79.4°F26.3°C 64.7°F18.2°C 61% 5.8 mph E9.3 kmh E 15.0 mph24.1 kmh 30.08 in1018.6 mb - 0.00 in0.0 mm 0.00 in0.0 mm
04:50 PM 79.8°F26.6°C 64.2°F17.9°C 59% 6.9 mph E11.1 kmh E 10.4 mph16.7 kmh 30.08 in1018.6 mb - 0.00 in0.0 mm 0.00 in0.0 mm
04:40 PM 79.8°F26.6°C 65.2°F18.4°C 61% 5.8 mph E9.3 kmh E 11.5 mph18.5 kmh 30.08 in1018.6 mb - 0.00 in0.0 mm 0.00 in0.0 mm
04:30 PM 79.7°F26.5°C 64.5°F18.1°C 60% 5.8 mph E9.3 kmh E 8.1 mph13.0 kmh 30.08 in1018.6 mb - 0.00 in0.0 mm 0.00 in0.0 mm
04:20 PM 79.6°F26.4°C 64.5°F18.1°C 60% 6.9 mph ENE11.1 kmh ENE 11.5 mph18.5 kmh 30.08 in1018.6 mb - 0.00 in0.0 mm 0.00 in0.0 mm
04:10 PM 80.2°F26.8°C 65.1°F18.4°C 60% 5.8 mph E9.3 kmh E 12.7 mph20.4 kmh 30.08 in1018.6 mb - 0.00 in0.0 mm 0.00 in0.0 mm
04:00 PM 78.5°F25.8°C 64.0°F17.8°C 61% 8.1 mph ESE13.0 kmh ESE 11.5 mph18.5 kmh 30.08 in1018.6 mb - 0.00 in0.0 mm 0.00 in0.0 mm
03:50 PM 80.6°F27.0°C 65.4°F18.6°C 60% 4.6 mph E7.4 kmh E 8.1 mph13.0 kmh 30.08 in1018.6 mb - 0.00 in0.0 mm 0.00 in0.0 mm
03:40 PM 79.6°F26.4°C 64.1°F17.8°C 59% 5.8 mph E9.3 kmh E 13.8 mph22.2 kmh 30.08 in1018.6 mb - 0.00 in0.0 mm 0.00 in0.0 mm
03:30 PM 79.3°F26.3°C 65.6°F18.7°C 63% 6.9 mph ESE11.1 kmh ESE 11.5 mph18.5 kmh 30.08 in1018.6 mb - 0.00 in0.0 mm 0.00 in0.0 mm
03:20 PM 78.9°F26.1°C 64.8°F18.2°C 62% 10.4 mph E16.7 kmh E 15.0 mph24.1 kmh 30.08 in1018.6 mb - 0.00 in0.0 mm 0.00 in0.0 mm
03:10 PM 80.4°F26.9°C 65.2°F18.4°C 60% 4.6 mph E7.4 kmh E 4.6 mph7.4 kmh 30.09 in1019.0 mb - 0.00 in0.0 mm 0.00 in0.0 mm
03:00 PM 80.9°F27.2°C 65.7°F18.7°C 60% 6.9 mph E11.1 kmh E 15.0 mph24.1 kmh 30.09 in1019.0 mb - 0.00 in0.0 mm 0.00 in0.0 mm
02:50 PM 80.2°F26.8°C 66.0°F18.9°C 62% 4.6 mph ENE7.4 kmh ENE 10.4 mph16.7 kmh 30.09 in1019.0 mb - 0.00 in0.0 mm 0.00 in0.0 mm
02:40 PM 80.0°F26.7°C 64.9°F18.3°C 60% 5.8 mph NE9.3 kmh NE 10.4 mph16.7 kmh 30.10 in1019.3 mb - 0.00 in0.0 mm 0.00 in0.0 mm
02:30 PM 80.7°F27.1°C 65.0°F18.3°C 59% 5.8 mph E9.3 kmh E 12.7 mph20.4 kmh 30.10 in1019.3 mb - 0.00 in0.0 mm 0.00 in0.0 mm
02:20 PM 79.6°F26.4°C 64.9°F18.3°C 61% 9.2 mph E14.8 kmh E 12.7 mph20.4 kmh 30.10 in1019.3 mb - 0.00 in0.0 mm 0.00 in0.0 mm
02:10 PM 79.9°F26.6°C 65.3°F18.5°C 61% 5.8 mph ENE9.3 kmh ENE 8.1 mph13.0 kmh 30.11 in1019.6 mb - 0.00 in0.0 mm 0.00 in0.0 mm
02:00 PM 78.9°F26.1°C 64.8°F18.2°C 62% 8.1 mph E13.0 kmh E 11.5 mph18.5 kmh 30.11 in1019.6 mb - 0.00 in0.0 mm 0.00 in0.0 mm
01:50 PM 78.2°F25.7°C 64.1°F17.8°C 62% 6.9 mph E11.1 kmh E 6.9 mph11.1 kmh 30.11 in1019.6 mb - 0.00 in0.0 mm 0.00 in0.0 mm
01:40 PM 80.9°F27.2°C 65.7°F18.7°C 60% 6.9 mph E11.1 kmh E 15.0 mph24.1 kmh 30.11 in1019.6 mb - 0.00 in0.0 mm 0.00 in0.0 mm
01:30 PM 80.1°F26.7°C 65.9°F18.8°C 62% 5.8 mph E9.3 kmh E 8.1 mph13.0 kmh 30.11 in1019.6 mb - 0.00 in0.0 mm 0.00 in0.0 mm
01:20 PM 80.3°F26.8°C 65.2°F18.4°C 60% 6.9 mph E11.1 kmh E 10.4 mph16.7 kmh 30.12 in1020.0 mb - 0.00 in0.0 mm 0.00 in0.0 mm
01:10 PM 80.0°F26.7°C 64.9°F18.3°C 60% 6.9 mph ESE11.1 kmh ESE 11.5 mph18.5 kmh 30.12 in1020.0 mb - 0.00 in0.0 mm 0.00 in0.0 mm
01:00 PM 81.1°F27.3°C 65.9°F18.8°C 60% 8.1 mph E13.0 kmh E 13.8 mph22.2 kmh 30.12 in1020.0 mb - 0.00 in0.0 mm 0.00 in0.0 mm
12:50 PM 79.7°F26.5°C 65.0°F18.3°C 61% 5.8 mph E9.3 kmh E 11.5 mph18.5 kmh 30.12 in1020.0 mb - 0.00 in0.0 mm 0.00 in0.0 mm
12:40 PM 79.5°F26.4°C 65.4°F18.6°C 62% 6.9 mph E11.1 kmh E 11.5 mph18.5 kmh 30.13 in1020.3 mb - 0.00 in0.0 mm 0.00 in0.0 mm
12:30 PM 78.7°F25.9°C 64.6°F18.1°C 62% 9.2 mph E14.8 kmh E 10.4 mph16.7 kmh 30.12 in1020.0 mb - 0.00 in0.0 mm 0.00 in0.0 mm
12:20 PM 78.9°F26.1°C 64.8°F18.2°C 62% 6.9 mph E11.1 kmh E 8.1 mph13.0 kmh 30.13 in1020.3 mb - 0.00 in0.0 mm 0.00 in0.0 mm
12:10 PM 79.4°F26.3°C 65.3°F18.5°C 62% 8.1 mph E13.0 kmh E 9.2 mph14.8 kmh 30.13 in1020.3 mb - 0.00 in0.0 mm 0.00 in0.0 mm
12:00 PM 78.2°F25.7°C 65.0°F18.3°C 64% 8.1 mph E13.0 kmh E 11.5 mph18.5 kmh 30.13 in1020.3 mb - 0.00 in0.0 mm 0.00 in0.0 mm
11:50 AM 79.3°F26.3°C 65.2°F18.4°C 62% 8.1 mph E13.0 kmh E 10.4 mph16.7 kmh 30.14 in1020.7 mb - 0.00 in0.0 mm 0.00 in0.0 mm
11:40 AM 79.2°F26.2°C 65.0°F18.3°C 62% 6.9 mph E11.1 kmh E 9.2 mph14.8 kmh 30.13 in1020.3 mb - 0.00 in0.0 mm 0.00 in0.0 mm
11:30 AM 78.4°F25.8°C 64.7°F18.2°C 63% 6.9 mph ESE11.1 kmh ESE 11.5 mph18.5 kmh 30.14 in1020.7 mb - 0.00 in0.0 mm 0.00 in0.0 mm
11:20 AM 78.4°F25.8°C 64.8°F18.2°C 63% 6.9 mph E11.1 kmh E 11.5 mph18.5 kmh 30.14 in1020.7 mb - 0.00 in0.0 mm 0.00 in0.0 mm
11:10 AM 78.3°F25.7°C 65.1°F18.4°C 64% 5.8 mph E9.3 kmh E 6.9 mph11.1 kmh 30.14 in1020.7 mb - 0.00 in0.0 mm 0.00 in0.0 mm
11:00 AM 76.6°F24.8°C 64.8°F18.2°C 67% 5.8 mph ESE9.3 kmh ESE 6.9 mph11.1 kmh 30.14 in1020.7 mb - 0.00 in0.0 mm 0.00 in0.0 mm
10:50 AM 76.6°F24.8°C 64.4°F18.0°C 66% 8.1 mph E13.0 kmh E 11.5 mph18.5 kmh 30.14 in1020.7 mb - 0.00 in0.0 mm 0.00 in0.0 mm
10:40 AM 76.5°F24.7°C 64.3°F17.9°C 66% 6.9 mph E11.1 kmh E 9.2 mph14.8 kmh 30.14 in1020.7 mb - 0.00 in0.0 mm 0.00 in0.0 mm
10:30 AM 77.4°F25.2°C 64.7°F18.2°C 65% 6.9 mph E11.1 kmh E 9.2 mph14.8 kmh 30.14 in1020.7 mb - 0.00 in0.0 mm 0.00 in0.0 mm
10:20 AM 77.9°F25.5°C 65.2°F18.4°C 65% 5.8 mph E9.3 kmh E 8.1 mph13.0 kmh 30.14 in1020.7 mb - 0.00 in0.0 mm 0.00 in0.0 mm
10:10 AM 76.8°F24.9°C 65.9°F18.8°C 69% 8.1 mph E13.0 kmh E 11.5 mph18.5 kmh 30.14 in1020.7 mb - 0.00 in0.0 mm 0.00 in0.0 mm
10:00 AM 75.5°F24.2°C 64.6°F18.1°C 69% 6.9 mph E11.1 kmh E 11.5 mph18.5 kmh 30.13 in1020.3 mb - 0.00 in0.0 mm 0.00 in0.0 mm
09:50 AM 76.3°F24.6°C 64.5°F18.1°C 67% 4.6 mph E7.4 kmh E 8.1 mph13.0 kmh 30.13 in1020.3 mb - 0.00 in0.0 mm 0.00 in0.0 mm
09:40 AM 75.9°F24.4°C 65.4°F18.6°C 70% 5.8 mph ESE9.3 kmh ESE 8.1 mph13.0 kmh 30.13 in1020.3 mb - 0.00 in0.0 mm 0.00 in0.0 mm
09:30 AM 75.1°F23.9°C 64.2°F17.9°C 69% 8.1 mph E13.0 kmh E 10.4 mph16.7 kmh 30.12 in1020.0 mb - 0.00 in0.0 mm 0.00 in0.0 mm
09:20 AM 74.2°F23.4°C 64.6°F18.1°C 72% 6.9 mph E11.1 kmh E 10.4 mph16.7 kmh 30.12 in1020.0 mb - 0.00 in0.0 mm 0.00 in0.0 mm
09:10 AM 74.2°F23.4°C 64.6°F18.1°C 72% 5.8 mph E9.3 kmh E 8.1 mph13.0 kmh 30.12 in1020.0 mb - 0.00 in0.0 mm 0.00 in0.0 mm
09:00 AM 73.7°F23.2°C 64.1°F17.8°C 72% 5.8 mph E9.3 kmh E 9.2 mph14.8 kmh 30.12 in1020.0 mb - 0.00 in0.0 mm 0.00 in0.0 mm
08:50 AM 73.4°F23.0°C 63.8°F17.7°C 72% 5.8 mph E9.3 kmh E 12.7 mph20.4 kmh 30.11 in1019.6 mb - 0.00 in0.0 mm 0.00 in0.0 mm
08:40 AM 73.1°F22.8°C 63.5°F17.5°C 72% 6.9 mph ESE11.1 kmh ESE 8.1 mph13.0 kmh 30.11 in1019.6 mb - 0.00 in0.0 mm 0.00 in0.0 mm
08:30 AM 73.1°F22.8°C 63.5°F17.5°C 72% 5.8 mph E9.3 kmh E 10.4 mph16.7 kmh 30.11 in1019.6 mb - 0.00 in0.0 mm 0.00 in0.0 mm
08:20 AM 72.7°F22.6°C 62.7°F17.1°C 71% 6.9 mph E11.1 kmh E 8.1 mph13.0 kmh 30.10 in1019.3 mb - 0.00 in0.0 mm 0.00 in0.0 mm
08:10 AM 72.7°F22.6°C 63.9°F17.7°C 74% 5.8 mph ESE9.3 kmh ESE 8.1 mph13.0 kmh 30.10 in1019.3 mb - 0.00 in0.0 mm 0.00 in0.0 mm
08:00 AM 72.7°F22.6°C 63.9°F17.7°C 74% 4.6 mph E7.4 kmh E 8.1 mph13.0 kmh 30.10 in1019.3 mb - 0.00 in0.0 mm 0.00 in0.0 mm
07:50 AM 72.6°F22.6°C 63.4°F17.4°C 73% 6.9 mph E11.1 kmh E 9.2 mph14.8 kmh 30.09 in1019.0 mb - 0.00 in0.0 mm 0.00 in0.0 mm
07:40 AM 72.6°F22.6°C 63.8°F17.7°C 74% 5.8 mph ESE9.3 kmh ESE 8.1 mph13.0 kmh 30.09 in1019.0 mb - 0.00 in0.0 mm 0.00 in0.0 mm
07:30 AM 72.4°F22.4°C 63.3°F17.4°C 73% 5.8 mph ESE9.3 kmh ESE 11.5 mph18.5 kmh 30.09 in1019.0 mb - 0.00 in0.0 mm 0.00 in0.0 mm
07:20 AM 72.3°F22.4°C 63.2°F17.3°C 73% 6.9 mph E11.1 kmh E 10.4 mph16.7 kmh 30.09 in1019.0 mb - 0.00 in0.0 mm 0.00 in0.0 mm
07:10 AM 72.2°F22.3°C 63.1°F17.3°C 73% 5.8 mph E9.3 kmh E 11.5 mph18.5 kmh 30.08 in1018.6 mb - 0.00 in0.0 mm 0.00 in0.0 mm
07:00 AM 72.3°F22.4°C 63.5°F17.5°C 74% 5.8 mph ESE9.3 kmh ESE 9.2 mph14.8 kmh 30.08 in1018.6 mb - 0.00 in0.0 mm 0.00 in0.0 mm
06:50 AM 72.0°F22.2°C 63.3°F17.4°C 74% 5.8 mph E9.3 kmh E 5.8 mph9.3 kmh 30.08 in1018.6 mb - 0.00 in0.0 mm 0.00 in0.0 mm
06:40 AM 72.0°F22.2°C 63.6°F17.6°C 75% 3.5 mph E5.6 kmh E 5.8 mph9.3 kmh 30.08 in1018.6 mb - 0.00 in0.0 mm 0.00 in0.0 mm
06:30 AM 72.0°F22.2°C 64.0°F17.8°C 76% 4.6 mph E7.4 kmh E 10.4 mph16.7 kmh 30.08 in1018.6 mb - 0.00 in0.0 mm 0.00 in0.0 mm
06:20 AM 72.0°F22.2°C 64.0°F17.8°C 76% 3.5 mph E5.6 kmh E 4.6 mph7.4 kmh 30.08 in1018.6 mb - 0.00 in0.0 mm 0.00 in0.0 mm
06:10 AM 72.0°F22.2°C 64.0°F17.8°C 76% 4.6 mph E7.4 kmh E 6.9 mph11.1 kmh 30.08 in1018.6 mb - 0.00 in0.0 mm 0.00 in0.0 mm
06:00 AM 72.0°F22.2°C 64.0°F17.8°C 76% 5.8 mph E9.3 kmh E 8.1 mph13.0 kmh 30.08 in1018.6 mb - 0.00 in0.0 mm 0.00 in0.0 mm
05:50 AM 72.0°F22.2°C 64.0°F17.8°C 76% 3.5 mph E5.6 kmh E 4.6 mph7.4 kmh 30.08 in1018.6 mb - 0.00 in0.0 mm 0.00 in0.0 mm
05:40 AM 71.8°F22.1°C 63.4°F17.4°C 75% 4.6 mph E7.4 kmh E 5.8 mph9.3 kmh 30.07 in1018.3 mb - 0.00 in0.0 mm 0.00 in0.0 mm
05:30 AM 71.9°F22.2°C 63.9°F17.7°C 76% 6.9 mph E11.1 kmh E 5.8 mph9.3 kmh 30.07 in1018.3 mb - 0.00 in0.0 mm 0.00 in0.0 mm
05:20 AM 71.9°F22.2°C 63.9°F17.7°C 76% 6.9 mph E11.1 kmh E 9.2 mph14.8 kmh 30.07 in1018.3 mb - 0.00 in0.0 mm 0.00 in0.0 mm
05:10 AM 72.0°F22.2°C 63.6°F17.6°C 75% 4.6 mph E7.4 kmh E 8.1 mph13.0 kmh 30.07 in1018.3 mb - 0.00 in0.0 mm 0.00 in0.0 mm
05:00 AM 72.0°F22.2°C 64.0°F17.8°C 76% 5.8 mph E9.3 kmh E 8.1 mph13.0 kmh 30.07 in1018.3 mb - 0.00 in0.0 mm 0.00 in0.0 mm
04:50 AM 72.0°F22.2°C 64.0°F17.8°C 76% 4.6 mph E7.4 kmh E 9.2 mph14.8 kmh 30.07 in1018.3 mb - 0.00 in0.0 mm 0.00 in0.0 mm
04:40 AM 72.0°F22.2°C 64.0°F17.8°C 76% 5.8 mph E9.3 kmh E 11.5 mph18.5 kmh 30.07 in1018.3 mb - 0.00 in0.0 mm 0.00 in0.0 mm
04:30 AM 72.0°F22.2°C 64.0°F17.8°C 76% 4.6 mph E7.4 kmh E 6.9 mph11.1 kmh 30.08 in1018.6 mb - 0.00 in0.0 mm 0.00 in0.0 mm
04:20 AM 72.2°F22.3°C 64.2°F17.9°C 76% 5.8 mph E9.3 kmh E 11.5 mph18.5 kmh 30.07 in1018.3 mb - 0.00 in0.0 mm 0.00 in0.0 mm
04:10 AM 72.2°F22.3°C 64.2°F17.9°C 76% 4.6 mph E7.4 kmh E 5.8 mph9.3 kmh 30.08 in1018.6 mb - 0.00 in0.0 mm 0.00 in0.0 mm
04:00 AM 72.1°F22.3°C 64.1°F17.8°C 76% 4.6 mph E7.4 kmh E 5.8 mph9.3 kmh 30.08 in1018.6 mb - 0.00 in0.0 mm 0.00 in0.0 mm
03:50 AM 72.3°F22.4°C 64.3°F17.9°C 76% 3.5 mph E5.6 kmh E 4.6 mph7.4 kmh 30.08 in1018.6 mb - 0.00 in0.0 mm 0.00 in0.0 mm
03:40 AM 72.2°F22.3°C 63.8°F17.7°C 75% 6.9 mph E11.1 kmh E 11.5 mph18.5 kmh 30.09 in1019.0 mb - 0.00 in0.0 mm 0.00 in0.0 mm
03:30 AM 72.2°F22.3°C 64.2°F17.9°C 76% 5.8 mph E9.3 kmh E 8.1 mph13.0 kmh 30.09 in1019.0 mb - 0.00 in0.0 mm 0.00 in0.0 mm
03:20 AM 72.3°F22.4°C 64.3°F17.9°C 76% 5.8 mph E9.3 kmh E 9.2 mph14.8 kmh 30.09 in1019.0 mb - 0.00 in0.0 mm 0.00 in0.0 mm
03:10 AM 72.3°F22.4°C 64.3°F17.9°C 76% 4.6 mph E7.4 kmh E 8.1 mph13.0 kmh 30.09 in1019.0 mb - 0.00 in0.0 mm 0.00 in0.0 mm
03:00 AM 72.1°F22.3°C 64.1°F17.8°C 76% 5.8 mph E9.3 kmh E 8.1 mph13.0 kmh 30.09 in1019.0 mb - 0.00 in0.0 mm 0.00 in0.0 mm
02:50 AM 72.1°F22.3°C 64.1°F17.8°C 76% 6.9 mph E11.1 kmh E 10.4 mph16.7 kmh 30.09 in1019.0 mb - 0.00 in0.0 mm 0.00 in0.0 mm
02:40 AM 71.8°F22.1°C 63.9°F17.7°C 76% 4.6 mph E7.4 kmh E 8.1 mph13.0 kmh 30.09 in1019.0 mb - 0.00 in0.0 mm 0.00 in0.0 mm
02:30 AM 71.7°F22.1°C 63.4°F17.4°C 75% 6.9 mph E11.1 kmh E 11.5 mph18.5 kmh 30.09 in1019.0 mb - 0.00 in0.0 mm 0.00 in0.0 mm
02:20 AM 71.7°F22.1°C 63.7°F17.6°C 76% 6.9 mph E11.1 kmh E 11.5 mph18.5 kmh 30.09 in1019.0 mb - 0.00 in0.0 mm 0.00 in0.0 mm
02:10 AM 71.7°F22.1°C 63.4°F17.4°C 75% 6.9 mph E11.1 kmh E 10.4 mph16.7 kmh 30.10 in1019.3 mb - 0.00 in0.0 mm 0.00 in0.0 mm
02:00 AM 71.9°F22.2°C 63.9°F17.7°C 76% 4.6 mph E7.4 kmh E 11.5 mph18.5 kmh 30.10 in1019.3 mb - 0.00 in0.0 mm 0.00 in0.0 mm
01:50 AM 72.0°F22.2°C 64.4°F18.0°C 77% 8.1 mph ESE13.0 kmh ESE 11.5 mph18.5 kmh 30.10 in1019.3 mb - 0.00 in0.0 mm 0.00 in0.0 mm
01:40 AM 71.9°F22.2°C 63.9°F17.7°C 76% 6.9 mph E11.1 kmh E 12.7 mph20.4 kmh 30.10 in1019.3 mb - 0.00 in0.0 mm 0.00 in0.0 mm
01:30 AM 71.9°F22.2°C 64.3°F17.9°C 77% 8.1 mph E13.0 kmh E 12.7 mph20.4 kmh 30.10 in1019.3 mb - 0.00 in0.0 mm 0.00 in0.0 mm
01:20 AM 72.0°F22.2°C 64.0°F17.8°C 76% 9.2 mph E14.8 kmh E 12.7 mph20.4 kmh 30.11 in1019.6 mb - 0.00 in0.0 mm 0.00 in0.0 mm
01:10 AM 71.8°F22.1°C 63.9°F17.7°C 76% 9.2 mph ESE14.8 kmh ESE 13.8 mph22.2 kmh 30.11 in1019.6 mb - 0.00 in0.0 mm 0.00 in0.0 mm
01:00 AM 71.9°F22.2°C 64.3°F17.9°C 77% 10.4 mph E16.7 kmh E 15.0 mph24.1 kmh 30.12 in1020.0 mb - 0.00 in0.0 mm 0.00 in0.0 mm
12:50 AM 72.0°F22.2°C 64.4°F18.0°C 77% 6.9 mph ESE11.1 kmh ESE 8.1 mph13.0 kmh 30.12 in1020.0 mb - 0.00 in0.0 mm 0.00 in0.0 mm
12:40 AM 71.8°F22.1°C 64.2°F17.9°C 77% 5.8 mph E9.3 kmh E 6.9 mph11.1 kmh 30.12 in1020.0 mb - 0.00 in0.0 mm 0.00 in0.0 mm
12:30 AM 71.7°F22.1°C 63.7°F17.6°C 76% 3.5 mph E5.6 kmh E 9.2 mph14.8 kmh 30.12 in1020.0 mb - 0.00 in0.0 mm 0.00 in0.0 mm
12:20 AM 71.9°F22.2°C 64.3°F17.9°C 77% 3.5 mph E5.6 kmh E 4.6 mph7.4 kmh 30.12 in1020.0 mb - 0.00 in0.0 mm 0.00 in0.0 mm
12:10 AM 72.1°F22.3°C 64.5°F18.1°C 77% 5.8 mph E9.3 kmh E 8.1 mph13.0 kmh 30.13 in1020.3 mb - 0.00 in0.0 mm 0.00 in0.0 mm
12:00 AM 72.0°F22.2°C 64.4°F18.0°C 77% 8.1 mph E13.0 kmh E 13.8 mph22.2 kmh 30.13 in1020.3 mb - 0.00 in0.0 mm 0.00 in0.0 mm